Language selection

Features

My Weather Profile Weather Topics  | 

Central Brevoort - southern half: Past 24 Hour Conditions

 

CFB Goose Bay

05:00 PM ADT 16 April 2021
Disclaimer

This table is a summary of hourly weather conditions for the past 24 hours.
Please note that these observations might not always be representative of weather conditions over their associated marine area.

Date / Time
(ADT)
Wind(knots) Conditions Visibility(km) Pressure(kPa) Air tempC) Relative humidity(%) Dew pointC) Wind Chill
16 April 2021
17:00 N 5 Light Snowshower 24 102.2 -2 67 -7 -5
16:00 NE 5 Cloudy 24 102.2 -2 65 -7 -5
15:00 NE 4 Light Snowshower 24 102.2 -2 64 -8 -5
14:00 NE 7 Light Snowshower 24 102.3 -3 66 -8 -7
13:00 N 6 Cloudy 24 102.3 -3 66 -8 -7
12:00 NE 4 Light Snowshower 24 102.4 -3 69 -8 -7
11:00 NE 6 Light Snowshower 24 102.4 -4 70 -8 -9
10:00 calm Light Snowshower 24 102.4 -5 73 -8 *
9:00 NE 7 Light Snowshower 24 102.5 -5 73 -8 -10
8:00 ENE 5 Light Snowshower 24 102.5 -5 75 -8 -9
7:00 NE 7 Light Snowshower 24 102.4 -5 72 -9 -10
6:00 NE 3 Cloudy 24 102.5 -5 73 -9 -7
5:00 NNE 7 Light Snowshower 24 102.5 -5 72 -9 -10
4:00 NE 8 Cloudy 24 102.5 -5 72 -9 -10
3:00 NNE 7 Light Snow 24 102.5 -4 71 -8 -9
2:00 NNE 10 gust 17 Light Snow 24 102.5 -4 70 -8 -9
1:00 NNE 10 gust 19 Cloudy 24 102.5 -3 69 -7 -8
0:00 NNE 13 Cloudy 24 102.5 -2 68 -7 -9
15 April 2021
23:00 NNE 12 Light Snow 24 102.6 -2 66 -7 -8
22:00 NNE 9 gust 16 Cloudy 24 102.6 -1 69 -6 -7
21:00 NNE 12 Cloudy 24 102.6 -1 71 -5 -7
20:00 NNE 11 gust 17 Cloudy 24 102.6 -1 68 -5 -6
19:00 NNE 9 Cloudy 24 102.5 0 66 -5 -5
18:00 NNE 9 gust 15 Cloudy 24 102.5 0 65 -5 *
17:00 NNE 13 Cloudy 24 102.5 1 62 -5 *

Zoom-in to make a selection

Map of Atlantic - Labrador marine weather areas Kangiqsualujjuaq Airport Cape Kakkiviak Cape Kiglapait Cartwright Airport CFB Goose Bay Hopedale Mary's Harbour Nain Airport Makkovik Airport Saglek Tukialik Bay
Legend:
buoy Buoy
land station Land Station

Atlantic - Labrador Area

Another Region

What we are doing

Date modified: